Airfield :
LOGIN :

Register | Disclaimer

   EN    FR    IT 

 










Legend :    VFR   Marginal VFR   IFR   Intensive IFR   Very Intensive IFR
Visi :
Ceiling :
>= 8 km
>= 3000ft
5 to 8 km
1000 to 3000 ft
1500m to 5 km
500 to 1000 ft
800 to 1500m
200 to 500 ft
< 800m
< 200 ft
Symbols :   Thunderstorms  Fog  Heavy snow  Heavy precipitations  Wind > 20 kt
SIGMETs :     Misc.  Thunderstorms  Icing  Turbulence  Mountain Waves  Volcanic Ashes







- Airport Elevation : 1234 ft
- IATA code : LUX


ELLX - Luxembourg Findel

CURRENT METAR :
  • 201820Z VRB01KT 0200 R24/0750N FG VV002 01/01 Q0998 NOSIG

EXPIRED METARs :
  • 201750Z 05002KT 0300 R24/0800N FG -DZ BKN001 BKN003 01/01 Q0997 NOSIG
  • 201720Z 06004KT 0300 R24/0600N -DZ FG BKN001 BKN003 01/01 Q0997 NOSIG
  • 201650Z 05005KT 0500 R24/0700V1800U -DZ FG BKN001 BKN003 01/01 Q0997 RERA NOSIG
  • 201620Z 10004KT 050V140 1500 R24/0750N -RADZ BR SCT001 BKN003 01/01 Q0997 RERA NOSIG

TAF TAF ELLX
Valid from the 20 at 18:00 until the 22 at 00:00 UTC


201700Z 2018/2124 10004KT 3000 -RASN SCT001 BKN003
BECMG 2018/2021 29007KT 6000 NSW BKN010
BECMG 2110/2112 9999 BKN020
BECMG 2112/2115 21007KT
TEMPO 2117/2124 16010KT 1500 SNRA BKN001
PROB40
TEMPO 2122/2124 FZRA
ATIS : +352 4798 27300
Met : +352 4798 27010 / 27050
No reported NOTAMs for that airfield.
1 SIGMET reported for the Brussels FIR (EBBU) :
 
Severe turbulence
EBBU SIGMET 05 VALID 201800/202100 EBBR
EBBU BRUSSELS FIR SEV TURB FCST NE OF LINE N5130 E00230 - N4930 E00615 FL180/310 MOV NE NC=



MET'MAP, your aeronautical weather chart ! - Copyright ORBIFLY December 2007 - Disclaimer

ORBIFLY MET'MAP TEAM :

Programming & Development : Alexandra Zaïnal
Concept & Development : Baudouin d'Aumeries
Co-Development & Prog : Marc-Olivier Méhu
Technical & hardware support : Manuel Goepfert

Contact : metmap@orbifly.com




SOURCES & CREDITS :

   NOAA